sensor_id;sensor_type;location;lat;lon;timestamp;P1;durP1;ratioP1;P2;durP2;ratioP2
11283;SDS011;5698;47.332;11.180;2023-04-08T00:01:51;3.00;;;2.50;;
11283;SDS011;5698;47.332;11.180;2023-04-08T00:04:18;2.50;;;2.30;;
11283;SDS011;5698;47.332;11.180;2023-04-08T00:06:45;2.80;;;2.60;;
11283;SDS011;5698;47.332;11.180;2023-04-08T00:09:12;2.30;;;2.10;;
11283;SDS011;5698;47.332;11.180;2023-04-08T00:11:40;2.47;;;2.27;;
11283;SDS011;5698;47.332;11.180;2023-04-08T00:14:07;2.40;;;2.20;;
11283;SDS011;5698;47.332;11.180;2023-04-08T00:16:35;2.70;;;2.50;;
11283;SDS011;5698;47.332;11.180;2023-04-08T00:19:01;2.40;;;2.20;;
11283;SDS011;5698;47.332;11.180;2023-04-08T00:21:30;2.57;;;2.33;;
11283;SDS011;5698;47.332;11.180;2023-04-08T00:23:57;2.53;;;2.33;;
11283;SDS011;5698;47.332;11.180;2023-04-08T00:26:24;2.73;;;2.53;;
11283;SDS011;5698;47.332;11.180;2023-04-08T00:28:53;2.73;;;2.50;;
11283;SDS011;5698;47.332;11.180;2023-04-08T00:31:20;2.60;;;2.30;;
11283;SDS011;5698;47.332;11.180;2023-04-08T00:33:47;2.60;;;2.40;;
11283;SDS011;5698;47.332;11.180;2023-04-08T00:36:14;3.83;;;2.33;;
11283;SDS011;5698;47.332;11.180;2023-04-08T00:38:41;2.60;;;2.40;;
11283;SDS011;5698;47.332;11.180;2023-04-08T00:41:07;2.83;;;2.63;;
11283;SDS011;5698;47.332;11.180;2023-04-08T00:43:34;2.97;;;2.73;;
11283;SDS011;5698;47.332;11.180;2023-04-08T00:46:03;3.37;;;3.07;;
11283;SDS011;5698;47.332;11.180;2023-04-08T00:48:30;2.90;;;2.70;;
11283;SDS011;5698;47.332;11.180;2023-04-08T00:50:57;2.50;;;2.30;;
11283;SDS011;5698;47.332;11.180;2023-04-08T00:53:24;3.07;;;2.77;;
11283;SDS011;5698;47.332;11.180;2023-04-08T00:55:51;2.80;;;2.60;;
11283;SDS011;5698;47.332;11.180;2023-04-08T00:58:18;2.70;;;2.50;;
11283;SDS011;5698;47.332;11.180;2023-04-08T01:00:46;3.17;;;2.87;;
11283;SDS011;5698;47.332;11.180;2023-04-08T01:03:24;3.27;;;2.97;;
11283;SDS011;5698;47.332;11.180;2023-04-08T01:06:02;3.27;;;2.63;;
11283;SDS011;5698;47.332;11.180;2023-04-08T01:08:36;2.70;;;2.50;;
11283;SDS011;5698;47.332;11.180;2023-04-08T01:11:05;2.27;;;1.97;;
11283;SDS011;5698;47.332;11.180;2023-04-08T01:13:37;2.40;;;2.20;;
11283;SDS011;5698;47.332;11.180;2023-04-08T01:16:07;2.47;;;2.27;;
11283;SDS011;5698;47.332;11.180;2023-04-08T01:18:39;2.20;;;2.00;;
11283;SDS011;5698;47.332;11.180;2023-04-08T01:21:08;2.40;;;2.20;;
11283;SDS011;5698;47.332;11.180;2023-04-08T01:23:38;2.50;;;2.30;;
11283;SDS011;5698;47.332;11.180;2023-04-08T01:26:19;2.57;;;2.37;;
11283;SDS011;5698;47.332;11.180;2023-04-08T01:28:49;2.30;;;2.10;;
11283;SDS011;5698;47.332;11.180;2023-04-08T01:31:19;3.10;;;2.90;;
11283;SDS011;5698;47.332;11.180;2023-04-08T01:33:48;2.47;;;2.27;;
11283;SDS011;5698;47.332;11.180;2023-04-08T01:36:17;2.60;;;2.40;;
11283;SDS011;5698;47.332;11.180;2023-04-08T01:38:46;2.60;;;2.40;;
11283;SDS011;5698;47.332;11.180;2023-04-08T01:41:15;3.00;;;2.80;;
11283;SDS011;5698;47.332;11.180;2023-04-08T01:43:43;4.20;;;2.47;;
11283;SDS011;5698;47.332;11.180;2023-04-08T01:46:12;2.60;;;2.40;;
11283;SDS011;5698;47.332;11.180;2023-04-08T01:48:40;2.47;;;2.27;;
11283;SDS011;5698;47.332;11.180;2023-04-08T01:51:08;2.13;;;2.03;;
11283;SDS011;5698;47.332;11.180;2023-04-08T01:53:36;2.27;;;2.17;;
11283;SDS011;5698;47.332;11.180;2023-04-08T01:56:05;1.77;;;1.67;;
11283;SDS011;5698;47.332;11.180;2023-04-08T01:58:37;2.03;;;1.83;;
11283;SDS011;5698;47.332;11.180;2023-04-08T02:01:19;2.43;;;1.70;;
11283;SDS011;5698;47.332;11.180;2023-04-08T02:03:48;1.47;;;1.37;;
11283;SDS011;5698;47.332;11.180;2023-04-08T02:06:20;1.50;;;1.40;;
11283;SDS011;5698;47.332;11.180;2023-04-08T02:08:47;1.50;;;1.40;;
11283;SDS011;5698;47.332;11.180;2023-04-08T02:11:14;1.60;;;1.50;;
11283;SDS011;5698;47.332;11.180;2023-04-08T02:13:42;1.00;;;0.93;;
11283;SDS011;5698;47.332;11.180;2023-04-08T02:16:11;1.20;;;1.10;;
11283;SDS011;5698;47.332;11.180;2023-04-08T02:18:44;1.50;;;1.40;;
11283;SDS011;5698;47.332;11.180;2023-04-08T02:21:25;1.80;;;1.50;;
11283;SDS011;5698;47.332;11.180;2023-04-08T02:23:57;1.60;;;1.50;;
11283;SDS011;5698;47.332;11.180;2023-04-08T02:26:29;2.13;;;1.97;;
11283;SDS011;5698;47.332;11.180;2023-04-08T02:29:00;2.13;;;1.93;;
11283;SDS011;5698;47.332;11.180;2023-04-08T02:31:29;2.47;;;2.10;;
11283;SDS011;5698;47.332;11.180;2023-04-08T02:33:56;2.50;;;2.30;;
11283;SDS011;5698;47.332;11.180;2023-04-08T02:36:24;2.57;;;2.37;;
11283;SDS011;5698;47.332;11.180;2023-04-08T02:38:51;2.53;;;2.33;;
11283;SDS011;5698;47.332;11.180;2023-04-08T02:41:18;2.50;;;2.30;;
11283;SDS011;5698;47.332;11.180;2023-04-08T02:43:46;2.73;;;2.37;;
11283;SDS011;5698;47.332;11.180;2023-04-08T02:46:14;2.57;;;2.37;;
11283;SDS011;5698;47.332;11.180;2023-04-08T02:48:41;2.37;;;2.17;;
11283;SDS011;5698;47.332;11.180;2023-04-08T02:51:08;1.70;;;1.60;;
11283;SDS011;5698;47.332;11.180;2023-04-08T02:53:35;2.27;;;2.03;;
11283;SDS011;5698;47.332;11.180;2023-04-08T02:56:02;2.53;;;1.50;;
11283;SDS011;5698;47.332;11.180;2023-04-08T02:58:30;1.60;;;1.50;;
11283;SDS011;5698;47.332;11.180;2023-04-08T03:00:57;1.77;;;1.67;;
11283;SDS011;5698;47.332;11.180;2023-04-08T03:03:26;1.60;;;1.50;;
11283;SDS011;5698;47.332;11.180;2023-04-08T03:05:54;1.60;;;1.50;;
11283;SDS011;5698;47.332;11.180;2023-04-08T03:08:21;1.60;;;1.50;;
11283;SDS011;5698;47.332;11.180;2023-04-08T03:10:49;1.40;;;1.30;;
11283;SDS011;5698;47.332;11.180;2023-04-08T03:13:16;3.77;;;1.37;;
11283;SDS011;5698;47.332;11.180;2023-04-08T03:15:43;1.27;;;1.17;;
11283;SDS011;5698;47.332;11.180;2023-04-08T03:18:10;1.40;;;1.30;;
11283;SDS011;5698;47.332;11.180;2023-04-08T03:20:38;1.40;;;1.30;;
11283;SDS011;5698;47.332;11.180;2023-04-08T03:23:05;1.30;;;1.20;;
11283;SDS011;5698;47.332;11.180;2023-04-08T03:25:32;1.50;;;1.40;;
11283;SDS011;5698;47.332;11.180;2023-04-08T03:27:59;2.17;;;1.60;;
11283;SDS011;5698;47.332;11.180;2023-04-08T03:30:26;1.93;;;1.77;;
11283;SDS011;5698;47.332;11.180;2023-04-08T03:32:53;1.70;;;1.60;;
11283;SDS011;5698;47.332;11.180;2023-04-08T03:35:20;2.40;;;2.20;;
11283;SDS011;5698;47.332;11.180;2023-04-08T03:37:48;3.90;;;3.33;;
11283;SDS011;5698;47.332;11.180;2023-04-08T03:40:15;3.83;;;3.50;;
11283;SDS011;5698;47.332;11.180;2023-04-08T03:42:43;3.63;;;3.20;;
11283;SDS011;5698;47.332;11.180;2023-04-08T03:45:10;3.93;;;3.53;;
11283;SDS011;5698;47.332;11.180;2023-04-08T03:47:37;5.13;;;4.50;;
11283;SDS011;5698;47.332;11.180;2023-04-08T03:50:04;4.57;;;4.17;;
11283;SDS011;5698;47.332;11.180;2023-04-08T03:52:32;5.03;;;4.53;;
11283;SDS011;5698;47.332;11.180;2023-04-08T03:55:00;5.47;;;4.70;;
11283;SDS011;5698;47.332;11.180;2023-04-08T03:57:27;4.80;;;4.30;;
11283;SDS011;5698;47.332;11.180;2023-04-08T03:59:54;4.57;;;4.17;;
11283;SDS011;5698;47.332;11.180;2023-04-08T04:02:22;4.87;;;4.37;;
11283;SDS011;5698;47.332;11.180;2023-04-08T04:04:48;5.37;;;3.93;;
11283;SDS011;5698;47.332;11.180;2023-04-08T04:07:15;3.63;;;3.33;;
11283;SDS011;5698;47.332;11.180;2023-04-08T04:09:42;3.73;;;3.10;;
11283;SDS011;5698;47.332;11.180;2023-04-08T04:12:11;3.70;;;3.40;;
11283;SDS011;5698;47.332;11.180;2023-04-08T04:14:38;3.90;;;3.50;;
11283;SDS011;5698;47.332;11.180;2023-04-08T04:17:05;4.20;;;3.80;;
11283;SDS011;5698;47.332;11.180;2023-04-08T04:19:32;4.20;;;3.80;;
11283;SDS011;5698;47.332;11.180;2023-04-08T04:21:59;4.60;;;4.20;;
11283;SDS011;5698;47.332;11.180;2023-04-08T04:24:26;5.43;;;4.93;;
11283;SDS011;5698;47.332;11.180;2023-04-08T04:26:53;5.10;;;4.60;;
11283;SDS011;5698;47.332;11.180;2023-04-08T04:29:22;4.90;;;4.40;;
11283;SDS011;5698;47.332;11.180;2023-04-08T04:31:49;5.70;;;5.17;;
11283;SDS011;5698;47.332;11.180;2023-04-08T04:34:15;5.23;;;4.73;;
11283;SDS011;5698;47.332;11.180;2023-04-08T04:36:42;3.87;;;3.57;;
11283;SDS011;5698;47.332;11.180;2023-04-08T04:39:10;4.03;;;3.63;;
11283;SDS011;5698;47.332;11.180;2023-04-08T04:41:37;3.50;;;3.10;;
11283;SDS011;5698;47.332;11.180;2023-04-08T04:44:04;3.70;;;3.10;;
11283;SDS011;5698;47.332;11.180;2023-04-08T04:46:33;3.83;;;3.40;;
11283;SDS011;5698;47.332;11.180;2023-04-08T04:49:00;4.10;;;3.70;;
11283;SDS011;5698;47.332;11.180;2023-04-08T04:51:27;4.87;;;3.93;;
11283;SDS011;5698;47.332;11.180;2023-04-08T04:53:57;5.53;;;4.60;;
11283;SDS011;5698;47.332;11.180;2023-04-08T04:56:24;5.87;;;5.30;;
11283;SDS011;5698;47.332;11.180;2023-04-08T04:58:51;5.37;;;4.87;;
11283;SDS011;5698;47.332;11.180;2023-04-08T05:01:18;5.57;;;5.07;;
11283;SDS011;5698;47.332;11.180;2023-04-08T05:03:47;5.37;;;4.73;;
11283;SDS011;5698;47.332;11.180;2023-04-08T05:06:14;6.50;;;5.87;;
11283;SDS011;5698;47.332;11.180;2023-04-08T05:08:41;4.40;;;4.00;;
11283;SDS011;5698;47.332;11.180;2023-04-08T05:11:08;2.63;;;2.43;;
11283;SDS011;5698;47.332;11.180;2023-04-08T05:13:35;3.40;;;3.10;;
11283;SDS011;5698;47.332;11.180;2023-04-08T05:16:02;4.50;;;4.10;;
11283;SDS011;5698;47.332;11.180;2023-04-08T05:18:29;5.67;;;4.90;;
11283;SDS011;5698;47.332;11.180;2023-04-08T05:20:58;6.50;;;5.20;;
11283;SDS011;5698;47.332;11.180;2023-04-08T05:23:25;5.87;;;5.27;;
11283;SDS011;5698;47.332;11.180;2023-04-08T05:25:52;7.27;;;6.13;;
11283;SDS011;5698;47.332;11.180;2023-04-08T05:28:20;5.57;;;5.07;;
11283;SDS011;5698;47.332;11.180;2023-04-08T05:30:47;6.77;;;6.17;;
11283;SDS011;5698;47.332;11.180;2023-04-08T05:33:15;6.60;;;5.57;;
11283;SDS011;5698;47.332;11.180;2023-04-08T05:35:42;5.70;;;5.20;;
11283;SDS011;5698;47.332;11.180;2023-04-08T05:38:10;7.30;;;6.60;;
11283;SDS011;5698;47.332;11.180;2023-04-08T05:40:38;6.07;;;5.47;;
11283;SDS011;5698;47.332;11.180;2023-04-08T05:43:05;5.77;;;5.17;;
11283;SDS011;5698;47.332;11.180;2023-04-08T05:45:31;6.83;;;5.50;;
11283;SDS011;5698;47.332;11.180;2023-04-08T05:47:59;5.77;;;5.27;;
11283;SDS011;5698;47.332;11.180;2023-04-08T05:50:26;6.37;;;5.73;;
11283;SDS011;5698;47.332;11.180;2023-04-08T05:52:53;5.60;;;5.10;;
11283;SDS011;5698;47.332;11.180;2023-04-08T05:55:21;6.63;;;5.60;;
11283;SDS011;5698;47.332;11.180;2023-04-08T05:57:48;6.67;;;5.73;;
11283;SDS011;5698;47.332;11.180;2023-04-08T06:00:15;7.53;;;6.53;;
11283;SDS011;5698;47.332;11.180;2023-04-08T06:02:42;6.50;;;5.70;;
11283;SDS011;5698;47.332;11.180;2023-04-08T06:05:09;6.57;;;5.97;;
11283;SDS011;5698;47.332;11.180;2023-04-08T06:07:36;6.97;;;6.27;;
11283;SDS011;5698;47.332;11.180;2023-04-08T06:10:03;6.10;;;5.47;;
11283;SDS011;5698;47.332;11.180;2023-04-08T06:12:35;7.50;;;6.30;;
11283;SDS011;5698;47.332;11.180;2023-04-08T06:15:03;6.67;;;5.97;;
11283;SDS011;5698;47.332;11.180;2023-04-08T06:17:30;6.77;;;6.00;;
11283;SDS011;5698;47.332;11.180;2023-04-08T06:19:57;6.63;;;6.00;;
11283;SDS011;5698;47.332;11.180;2023-04-08T06:22:26;5.83;;;5.23;;
11283;SDS011;5698;47.332;11.180;2023-04-08T06:24:53;5.77;;;5.20;;
11283;SDS011;5698;47.332;11.180;2023-04-08T06:27:20;5.67;;;5.17;;
11283;SDS011;5698;47.332;11.180;2023-04-08T06:29:49;7.00;;;5.00;;
11283;SDS011;5698;47.332;11.180;2023-04-08T06:32:16;7.13;;;5.40;;
11283;SDS011;5698;47.332;11.180;2023-04-08T06:34:43;6.53;;;5.47;;
11283;SDS011;5698;47.332;11.180;2023-04-08T06:37:10;6.67;;;5.97;;
11283;SDS011;5698;47.332;11.180;2023-04-08T06:39:37;11.27;;;9.73;;
11283;SDS011;5698;47.332;11.180;2023-04-08T06:42:04;7.50;;;6.73;;
11283;SDS011;5698;47.332;11.180;2023-04-08T06:44:31;7.13;;;6.43;;
11283;SDS011;5698;47.332;11.180;2023-04-08T06:47:00;5.80;;;5.20;;
11283;SDS011;5698;47.332;11.180;2023-04-08T06:49:27;6.50;;;5.90;;
11283;SDS011;5698;47.332;11.180;2023-04-08T06:51:54;5.47;;;4.97;;
11283;SDS011;5698;47.332;11.180;2023-04-08T06:54:21;6.37;;;5.80;;
11283;SDS011;5698;47.332;11.180;2023-04-08T06:56:48;6.73;;;6.03;;
11283;SDS011;5698;47.332;11.180;2023-04-08T06:59:15;5.23;;;4.83;;
11283;SDS011;5698;47.332;11.180;2023-04-08T07:01:42;6.40;;;5.80;;
11283;SDS011;5698;47.332;11.180;2023-04-08T07:04:10;5.73;;;5.23;;
11283;SDS011;5698;47.332;11.180;2023-04-08T07:06:37;5.53;;;5.03;;
11283;SDS011;5698;47.332;11.180;2023-04-08T07:09:04;6.60;;;5.23;;
11283;SDS011;5698;47.332;11.180;2023-04-08T07:11:32;5.63;;;5.03;;
11283;SDS011;5698;47.332;11.180;2023-04-08T07:13:59;6.53;;;5.93;;
11283;SDS011;5698;47.332;11.180;2023-04-08T07:16:26;5.73;;;5.13;;
11283;SDS011;5698;47.332;11.180;2023-04-08T07:18:52;6.30;;;5.70;;
11283;SDS011;5698;47.332;11.180;2023-04-08T07:21:21;5.40;;;4.90;;
11283;SDS011;5698;47.332;11.180;2023-04-08T07:23:48;5.40;;;4.90;;
11283;SDS011;5698;47.332;11.180;2023-04-08T07:26:15;6.10;;;5.50;;
11283;SDS011;5698;47.332;11.180;2023-04-08T07:28:42;6.10;;;5.30;;
11283;SDS011;5698;47.332;11.180;2023-04-08T07:31:10;6.20;;;5.60;;
11283;SDS011;5698;47.332;11.180;2023-04-08T07:33:38;5.53;;;5.03;;
11283;SDS011;5698;47.332;11.180;2023-04-08T07:36:05;6.83;;;5.97;;
11283;SDS011;5698;47.332;11.180;2023-04-08T07:38:33;6.00;;;5.40;;
11283;SDS011;5698;47.332;11.180;2023-04-08T07:41:00;7.70;;;6.00;;
11283;SDS011;5698;47.332;11.180;2023-04-08T07:43:27;6.83;;;6.23;;
11283;SDS011;5698;47.332;11.180;2023-04-08T07:45:59;6.73;;;6.03;;
11283;SDS011;5698;47.332;11.180;2023-04-08T07:48:27;6.60;;;6.00;;
11283;SDS011;5698;47.332;11.180;2023-04-08T07:50:55;6.93;;;6.23;;
11283;SDS011;5698;47.332;11.180;2023-04-08T07:53:22;14.17;;;12.23;;
11283;SDS011;5698;47.332;11.180;2023-04-08T07:55:54;6.40;;;5.70;;
11283;SDS011;5698;47.332;11.180;2023-04-08T07:58:21;6.63;;;5.70;;
11283;SDS011;5698;47.332;11.180;2023-04-08T08:00:48;8.53;;;6.17;;
11283;SDS011;5698;47.332;11.180;2023-04-08T08:03:15;5.97;;;5.47;;
11283;SDS011;5698;47.332;11.180;2023-04-08T08:05:43;6.03;;;5.40;;
11283;SDS011;5698;47.332;11.180;2023-04-08T08:08:10;5.87;;;5.27;;
11283;SDS011;5698;47.332;11.180;2023-04-08T08:10:37;5.90;;;5.40;;
11283;SDS011;5698;47.332;11.180;2023-04-08T08:13:05;6.10;;;5.37;;
11283;SDS011;5698;47.332;11.180;2023-04-08T08:15:33;6.23;;;5.40;;
11283;SDS011;5698;47.332;11.180;2023-04-08T08:18:00;8.30;;;6.17;;
11283;SDS011;5698;47.332;11.180;2023-04-08T08:20:27;6.50;;;5.90;;
11283;SDS011;5698;47.332;11.180;2023-04-08T08:22:54;6.10;;;5.53;;
11283;SDS011;5698;47.332;11.180;2023-04-08T08:25:21;5.40;;;4.90;;
11283;SDS011;5698;47.332;11.180;2023-04-08T08:27:48;5.60;;;5.07;;
11283;SDS011;5698;47.332;11.180;2023-04-08T08:30:17;5.80;;;5.20;;
11283;SDS011;5698;47.332;11.180;2023-04-08T08:32:45;5.37;;;4.87;;
11283;SDS011;5698;47.332;11.180;2023-04-08T08:35:12;5.30;;;4.80;;
11283;SDS011;5698;47.332;11.180;2023-04-08T08:37:40;6.23;;;5.33;;
11283;SDS011;5698;47.332;11.180;2023-04-08T08:40:07;6.03;;;5.43;;
11283;SDS011;5698;47.332;11.180;2023-04-08T08:42:35;5.40;;;5.00;;
11283;SDS011;5698;47.332;11.180;2023-04-08T08:45:03;5.70;;;5.20;;
11283;SDS011;5698;47.332;11.180;2023-04-08T08:47:32;6.07;;;5.47;;
11283;SDS011;5698;47.332;11.180;2023-04-08T08:49:59;6.13;;;5.53;;
11283;SDS011;5698;47.332;11.180;2023-04-08T08:52:26;5.47;;;4.97;;
11283;SDS011;5698;47.332;11.180;2023-04-08T08:54:56;5.47;;;4.97;;
11283;SDS011;5698;47.332;11.180;2023-04-08T08:57:25;5.03;;;4.63;;
11283;SDS011;5698;47.332;11.180;2023-04-08T08:59:52;4.70;;;4.30;;
11283;SDS011;5698;47.332;11.180;2023-04-08T09:02:23;5.47;;;4.77;;
11283;SDS011;5698;47.332;11.180;2023-04-08T09:04:57;5.40;;;4.60;;
11283;SDS011;5698;47.332;11.180;2023-04-08T09:07:25;4.33;;;3.90;;
11283;SDS011;5698;47.332;11.180;2023-04-08T09:09:52;4.17;;;3.87;;
11283;SDS011;5698;47.332;11.180;2023-04-08T09:12:20;4.40;;;4.00;;
11283;SDS011;5698;47.332;11.180;2023-04-08T09:14:48;4.27;;;3.80;;
11283;SDS011;5698;47.332;11.180;2023-04-08T09:17:15;10.07;;;7.80;;
11283;SDS011;5698;47.332;11.180;2023-04-08T09:20:04;7.33;;;6.10;;
11283;SDS011;5698;47.332;11.180;2023-04-08T09:22:44;8.50;;;6.67;;
11283;SDS011;5698;47.332;11.180;2023-04-08T09:25:22;6.57;;;5.63;;
11283;SDS011;5698;47.332;11.180;2023-04-08T09:27:49;5.47;;;4.97;;
11283;SDS011;5698;47.332;11.180;2023-04-08T09:30:18;4.60;;;4.20;;
11283;SDS011;5698;47.332;11.180;2023-04-08T09:32:46;4.43;;;4.03;;
11283;SDS011;5698;47.332;11.180;2023-04-08T09:35:15;4.47;;;4.00;;
11283;SDS011;5698;47.332;11.180;2023-04-08T09:37:43;4.90;;;4.47;;
11283;SDS011;5698;47.332;11.180;2023-04-08T09:40:10;4.73;;;4.33;;
11283;SDS011;5698;47.332;11.180;2023-04-08T09:42:40;5.07;;;4.00;;
11283;SDS011;5698;47.332;11.180;2023-04-08T09:45:11;4.60;;;4.20;;
11283;SDS011;5698;47.332;11.180;2023-04-08T09:47:41;4.43;;;4.03;;
11283;SDS011;5698;47.332;11.180;2023-04-08T09:50:17;3.87;;;3.47;;
11283;SDS011;5698;47.332;11.180;2023-04-08T09:52:50;3.70;;;3.40;;
11283;SDS011;5698;47.332;11.180;2023-04-08T09:55:22;2.90;;;2.70;;
11283;SDS011;5698;47.332;11.180;2023-04-08T09:57:54;10.77;;;8.43;;
11283;SDS011;5698;47.332;11.180;2023-04-08T10:00:24;4.10;;;3.60;;
11283;SDS011;5698;47.332;11.180;2023-04-08T10:02:59;4.93;;;3.83;;
11283;SDS011;5698;47.332;11.180;2023-04-08T10:05:33;4.70;;;4.30;;
11283;SDS011;5698;47.332;11.180;2023-04-08T10:08:03;4.33;;;3.93;;
11283;SDS011;5698;47.332;11.180;2023-04-08T10:10:31;4.90;;;3.60;;
11283;SDS011;5698;47.332;11.180;2023-04-08T10:12:59;4.07;;;3.67;;
11283;SDS011;5698;47.332;11.180;2023-04-08T10:15:28;8.10;;;3.10;;
11283;SDS011;5698;47.332;11.180;2023-04-08T10:18:28;3.73;;;3.30;;
11283;SDS011;5698;47.332;11.180;2023-04-08T10:21:00;3.93;;;3.57;;
11283;SDS011;5698;47.332;11.180;2023-04-08T10:26:40;3.63;;;3.33;;
11283;SDS011;5698;47.332;11.180;2023-04-08T10:29:29;4.57;;;3.17;;
11283;SDS011;5698;47.332;11.180;2023-04-08T10:31:59;3.70;;;3.40;;
11283;SDS011;5698;47.332;11.180;2023-04-08T10:34:27;5.57;;;3.70;;
11283;SDS011;5698;47.332;11.180;2023-04-08T10:36:56;3.50;;;3.20;;
11283;SDS011;5698;47.332;11.180;2023-04-08T10:39:27;3.83;;;3.53;;
11283;SDS011;5698;47.332;11.180;2023-04-08T10:41:56;3.93;;;3.57;;
11283;SDS011;5698;47.332;11.180;2023-04-08T10:44:23;4.00;;;3.03;;
11283;SDS011;5698;47.332;11.180;2023-04-08T10:46:52;3.47;;;3.17;;
11283;SDS011;5698;47.332;11.180;2023-04-08T10:49:19;4.43;;;3.80;;
11283;SDS011;5698;47.332;11.180;2023-04-08T10:51:47;4.50;;;3.73;;
11283;SDS011;5698;47.332;11.180;2023-04-08T10:54:16;4.77;;;3.83;;
11283;SDS011;5698;47.332;11.180;2023-04-08T10:56:44;4.13;;;3.83;;
11283;SDS011;5698;47.332;11.180;2023-04-08T10:59:14;3.57;;;3.27;;
11283;SDS011;5698;47.332;11.180;2023-04-08T11:01:43;4.13;;;3.00;;
11283;SDS011;5698;47.332;11.180;2023-04-08T11:04:12;4.10;;;3.70;;
11283;SDS011;5698;47.332;11.180;2023-04-08T11:06:40;3.43;;;3.13;;
11283;SDS011;5698;47.332;11.180;2023-04-08T11:09:08;3.83;;;3.17;;
11283;SDS011;5698;47.332;11.180;2023-04-08T11:11:37;3.27;;;2.97;;
11283;SDS011;5698;47.332;11.180;2023-04-08T11:14:04;3.37;;;3.07;;
11283;SDS011;5698;47.332;11.180;2023-04-08T11:16:32;3.90;;;3.33;;
11283;SDS011;5698;47.332;11.180;2023-04-08T11:19:01;3.37;;;3.07;;
11283;SDS011;5698;47.332;11.180;2023-04-08T11:21:29;3.00;;;2.80;;
11283;SDS011;5698;47.332;11.180;2023-04-08T11:23:56;3.87;;;3.33;;
11283;SDS011;5698;47.332;11.180;2023-04-08T11:26:23;2.67;;;2.47;;
11283;SDS011;5698;47.332;11.180;2023-04-08T11:28:53;2.73;;;2.53;;
11283;SDS011;5698;47.332;11.180;2023-04-08T11:31:21;3.03;;;2.77;;
11283;SDS011;5698;47.332;11.180;2023-04-08T11:33:48;2.80;;;2.60;;
11283;SDS011;5698;47.332;11.180;2023-04-08T11:36:19;3.73;;;2.97;;
11283;SDS011;5698;47.332;11.180;2023-04-08T11:38:46;3.13;;;2.60;;
11283;SDS011;5698;47.332;11.180;2023-04-08T11:41:14;3.27;;;2.47;;
11283;SDS011;5698;47.332;11.180;2023-04-08T11:43:51;2.17;;;2.00;;
11283;SDS011;5698;47.332;11.180;2023-04-08T11:46:20;1.60;;;1.50;;
11283;SDS011;5698;47.332;11.180;2023-04-08T11:48:57;1.93;;;1.47;;
11283;SDS011;5698;47.332;11.180;2023-04-08T11:51:25;1.20;;;1.10;;
11283;SDS011;5698;47.332;11.180;2023-04-08T11:53:53;0.70;;;0.70;;
11283;SDS011;5698;47.332;11.180;2023-04-08T11:56:20;0.70;;;0.70;;
11283;SDS011;5698;47.332;11.180;2023-04-08T11:58:48;0.80;;;0.80;;
11283;SDS011;5698;47.332;11.180;2023-04-08T12:01:17;0.50;;;0.50;;
11283;SDS011;5698;47.332;11.180;2023-04-08T12:03:57;0.50;;;0.50;;
11283;SDS011;5698;47.332;11.180;2023-04-08T12:06:25;0.70;;;0.70;;
11283;SDS011;5698;47.332;11.180;2023-04-08T12:08:53;0.60;;;0.60;;
11283;SDS011;5698;47.332;11.180;2023-04-08T12:11:21;0.60;;;0.60;;
11283;SDS011;5698;47.332;11.180;2023-04-08T12:13:48;0.53;;;0.53;;
11283;SDS011;5698;47.332;11.180;2023-04-08T12:16:18;0.70;;;0.70;;
11283;SDS011;5698;47.332;11.180;2023-04-08T12:18:45;0.60;;;0.60;;
11283;SDS011;5698;47.332;11.180;2023-04-08T12:21:13;0.67;;;0.67;;
11283;SDS011;5698;47.332;11.180;2023-04-08T12:23:40;0.60;;;0.60;;
11283;SDS011;5698;47.332;11.180;2023-04-08T12:26:07;0.60;;;0.60;;
11283;SDS011;5698;47.332;11.180;2023-04-08T12:28:34;1.10;;;1.00;;
11283;SDS011;5698;47.332;11.180;2023-04-08T12:31:01;1.20;;;1.10;;
11283;SDS011;5698;47.332;11.180;2023-04-08T12:33:30;1.20;;;1.13;;
11283;SDS011;5698;47.332;11.180;2023-04-08T12:35:57;1.40;;;1.30;;
11283;SDS011;5698;47.332;11.180;2023-04-08T12:38:24;1.60;;;1.50;;
11283;SDS011;5698;47.332;11.180;2023-04-08T12:40:51;1.60;;;1.50;;
11283;SDS011;5698;47.332;11.180;2023-04-08T12:43:18;1.73;;;1.63;;
11283;SDS011;5698;47.332;11.180;2023-04-08T12:45:46;1.90;;;1.80;;
11283;SDS011;5698;47.332;11.180;2023-04-08T12:48:13;2.10;;;2.00;;
11283;SDS011;5698;47.332;11.180;2023-04-08T12:50:41;1.90;;;1.80;;
11283;SDS011;5698;47.332;11.180;2023-04-08T12:53:09;2.53;;;2.33;;
11283;SDS011;5698;47.332;11.180;2023-04-08T12:55:36;2.50;;;2.30;;
11283;SDS011;5698;47.332;11.180;2023-04-08T12:58:03;2.40;;;2.20;;
11283;SDS011;5698;47.332;11.180;2023-04-08T13:00:30;2.70;;;2.50;;
11283;SDS011;5698;47.332;11.180;2023-04-08T13:02:57;2.70;;;2.50;;
11283;SDS011;5698;47.332;11.180;2023-04-08T13:05:24;3.10;;;2.80;;
11283;SDS011;5698;47.332;11.180;2023-04-08T13:07:53;3.47;;;3.17;;
11283;SDS011;5698;47.332;11.180;2023-04-08T13:10:20;3.80;;;3.50;;
11283;SDS011;5698;47.332;11.180;2023-04-08T13:12:47;3.33;;;3.10;;
11283;SDS011;5698;47.332;11.180;2023-04-08T13:15:14;3.53;;;3.23;;
11283;SDS011;5698;47.332;11.180;2023-04-08T13:17:41;3.20;;;2.90;;
11283;SDS011;5698;47.332;11.180;2023-04-08T13:20:09;3.70;;;3.40;;
11283;SDS011;5698;47.332;11.180;2023-04-08T13:22:36;3.97;;;3.63;;
11283;SDS011;5698;47.332;11.180;2023-04-08T13:25:07;3.60;;;2.90;;
11283;SDS011;5698;47.332;11.180;2023-04-08T13:27:34;3.60;;;3.30;;
11283;SDS011;5698;47.332;11.180;2023-04-08T13:30:01;3.67;;;3.37;;
11283;SDS011;5698;47.332;11.180;2023-04-08T13:32:28;3.60;;;3.30;;
11283;SDS011;5698;47.332;11.180;2023-04-08T13:34:55;4.13;;;3.73;;
11283;SDS011;5698;47.332;11.180;2023-04-08T13:37:22;4.27;;;3.97;;
11283;SDS011;5698;47.332;11.180;2023-04-08T13:39:49;4.00;;;3.70;;
11283;SDS011;5698;47.332;11.180;2023-04-08T13:42:17;7.50;;;6.47;;
11283;SDS011;5698;47.332;11.180;2023-04-08T13:44:44;4.80;;;4.40;;
11283;SDS011;5698;47.332;11.180;2023-04-08T13:47:11;5.10;;;4.60;;
11283;SDS011;5698;47.332;11.180;2023-04-08T13:49:38;5.03;;;4.53;;
11283;SDS011;5698;47.332;11.180;2023-04-08T13:52:05;5.70;;;5.07;;
11283;SDS011;5698;47.332;11.180;2023-04-08T13:54:33;5.80;;;5.20;;
11283;SDS011;5698;47.332;11.180;2023-04-08T13:57:00;5.80;;;5.30;;
11283;SDS011;5698;47.332;11.180;2023-04-08T13:59:28;5.33;;;4.87;;
11283;SDS011;5698;47.332;11.180;2023-04-08T14:01:55;5.40;;;4.90;;
11283;SDS011;5698;47.332;11.180;2023-04-08T14:04:22;33.03;;;9.00;;
11283;SDS011;5698;47.332;11.180;2023-04-08T14:06:49;5.93;;;4.70;;
11283;SDS011;5698;47.332;11.180;2023-04-08T14:09:17;6.00;;;5.40;;
11283;SDS011;5698;47.332;11.180;2023-04-08T14:11:44;11.10;;;9.80;;
11283;SDS011;5698;47.332;11.180;2023-04-08T14:14:12;5.70;;;5.20;;
11283;SDS011;5698;47.332;11.180;2023-04-08T14:16:40;6.40;;;5.80;;
11283;SDS011;5698;47.332;11.180;2023-04-08T14:19:07;6.70;;;6.00;;
11283;SDS011;5698;47.332;11.180;2023-04-08T14:21:34;5.77;;;5.17;;
11283;SDS011;5698;47.332;11.180;2023-04-08T14:24:03;6.37;;;5.77;;
11283;SDS011;5698;47.332;11.180;2023-04-08T14:26:30;6.63;;;5.60;;
11283;SDS011;5698;47.332;11.180;2023-04-08T14:29:00;6.67;;;5.97;;
11283;SDS011;5698;47.332;11.180;2023-04-08T14:31:27;6.03;;;5.53;;
11283;SDS011;5698;47.332;11.180;2023-04-08T14:33:56;5.97;;;5.47;;
11283;SDS011;5698;47.332;11.180;2023-04-08T14:36:23;5.50;;;5.00;;
11283;SDS011;5698;47.332;11.180;2023-04-08T14:38:50;5.83;;;5.33;;
11283;SDS011;5698;47.332;11.180;2023-04-08T14:41:17;6.00;;;5.50;;
11283;SDS011;5698;47.332;11.180;2023-04-08T14:43:45;5.73;;;5.23;;
11283;SDS011;5698;47.332;11.180;2023-04-08T14:46:12;5.83;;;5.30;;
11283;SDS011;5698;47.332;11.180;2023-04-08T14:48:41;5.77;;;5.17;;
11283;SDS011;5698;47.332;11.180;2023-04-08T14:51:11;5.13;;;4.63;;
11283;SDS011;5698;47.332;11.180;2023-04-08T14:53:38;5.20;;;4.73;;
11283;SDS011;5698;47.332;11.180;2023-04-08T14:56:06;5.80;;;5.30;;
11283;SDS011;5698;47.332;11.180;2023-04-08T14:58:34;6.30;;;5.80;;